Main page
METAR-TAF:

METAR-TAF

Airports :

Chernivtsi International Airport

Chernivtsi, Ukraine

latitude: 48-15-36N, longitude: 025-58-54E, elevation: 252 m

Current weather observation

The report was made 4 hours and 52 minutes ago, at 15:30 UTC
Calm wind
Temperature 13°C
Humidity 54%
Pressure 1026 hPa
Visibility: 2000 m
smoke

METAR: UKLN 281530Z 00000MPS 4500 2000SW FU NSC 13/04 Q1026 R33/09//70 NOSIG

Time: 23:22 (20:22 UTC)

Forecast

The report was made 6 hours and 18 minutes ago, at 14:04 UTC
Forecast valid from 28 at 15 UTC to 28 at 24 UTC
Wind 2 kt from variable directions
Visibility 10 km or more
Scattered clouds at a height of 4000 ft
Temporary
from 28 at 21 UTC to 28 at 24 UTC
Visibility: 2100 m
mist

TAF: UKLN 281404Z 2815/2824 VRB01MPS 9999 SCT040 TX14/2815Z TN02/2824Z TEMPO 2821/2824 2100 BR

Weather observations and forecasts of more than 4000 airports (METAR and TAF reports).

The available stations are represented by yellow and red dots on the map.

Hover mouse over dot to see the name of the station.

Then click to see weather observations and forecasts.

To change the map : click on the green buttons with a black cross to zoom in, on the green button with a dash to zoom out, or on the green arrows for adjacent maps.


METAR-TAF: